createdAt,value
2022-09-09T00:00:16.770Z,13.90
2022-09-09T00:02:52.001Z,13.90
2022-09-09T00:05:27.524Z,13.80
2022-09-09T00:07:56.456Z,13.80
2022-09-09T00:10:30.228Z,13.70
2022-09-09T00:13:02.845Z,13.70
2022-09-09T00:15:32.531Z,13.60
2022-09-09T00:18:04.281Z,13.60
2022-09-09T00:20:41.196Z,13.60
2022-09-09T00:23:10.756Z,13.60
2022-09-09T00:25:49.715Z,13.60
2022-09-09T00:28:20.054Z,13.60
2022-09-09T00:30:49.335Z,13.60
2022-09-09T00:33:19.147Z,13.70
2022-09-09T00:35:47.898Z,13.60
2022-09-09T00:38:15.805Z,13.70
2022-09-09T00:40:48.173Z,13.70
2022-09-09T00:43:36.239Z,13.70
2022-09-09T00:46:35.950Z,13.80
2022-09-09T00:49:15.507Z,13.80
2022-09-09T00:51:42.156Z,13.80
2022-09-09T00:54:14.344Z,13.90
2022-09-09T00:56:48.147Z,13.90
2022-09-09T00:59:14.719Z,13.90
2022-09-09T01:01:41.415Z,13.90
2022-09-09T01:04:16.991Z,14.00
2022-09-09T01:06:47.192Z,14.00
2022-09-09T01:09:32.739Z,14.00
2022-09-09T01:12:09.034Z,14.00
2022-09-09T01:14:35.624Z,14.00
2022-09-09T01:17:23.295Z,14.00
2022-09-09T01:20:05.380Z,14.10
2022-09-09T01:22:46.349Z,14.10
2022-09-09T01:25:19.609Z,14.10
2022-09-09T01:27:47.624Z,14.20
2022-09-09T01:30:15.948Z,14.20
2022-09-09T01:32:47.288Z,14.20
2022-09-09T01:35:16.616Z,14.20
2022-09-09T01:37:43.310Z,14.30
2022-09-09T01:40:10.211Z,14.30
2022-09-09T01:42:37.099Z,14.30
2022-09-09T01:45:04.865Z,14.30
2022-09-09T01:47:31.497Z,14.30
2022-09-09T01:49:58.113Z,14.30
2022-09-09T01:52:24.792Z,14.30
2022-09-09T01:54:51.470Z,14.40
2022-09-09T01:57:26.876Z,14.30
2022-09-09T01:59:59.895Z,14.30
2022-09-09T02:02:45.431Z,14.30
2022-09-09T02:05:38.404Z,14.30
2022-09-09T02:08:09.594Z,14.30
2022-09-09T02:10:44.936Z,14.30
2022-09-09T02:13:13.580Z,14.30
2022-09-09T02:15:46.082Z,14.20
2022-09-09T02:18:14.370Z,14.20
2022-09-09T02:20:41.147Z,14.20
2022-09-09T02:23:09.637Z,14.20
2022-09-09T02:25:37.781Z,14.20
2022-09-09T02:28:06.495Z,14.20
2022-09-09T02:30:35.185Z,14.10
2022-09-09T02:33:04.899Z,14.10
2022-09-09T02:35:31.999Z,14.10
2022-09-09T02:38:04.993Z,14.10
2022-09-09T02:40:31.647Z,14.10
2022-09-09T02:42:58.267Z,14.10
2022-09-09T02:45:26.261Z,14.10
2022-09-09T02:47:53.227Z,14.20
2022-09-09T02:50:23.007Z,14.20
2022-09-09T02:52:55.592Z,14.20
2022-09-09T02:55:43.340Z,14.10
2022-09-09T02:58:12.450Z,14.20
2022-09-09T03:00:40.623Z,14.20
2022-09-09T03:03:07.665Z,14.20
2022-09-09T03:05:34.283Z,14.20
2022-09-09T03:08:00.968Z,14.20
2022-09-09T03:10:27.588Z,14.20
2022-09-09T03:12:54.201Z,14.20
2022-09-09T03:15:20.848Z,14.20
2022-09-09T03:17:48.116Z,14.20
2022-09-09T03:20:14.731Z,14.20
2022-09-09T03:22:41.361Z,14.20
2022-09-09T03:25:08.332Z,14.20
2022-09-09T03:27:35.013Z,14.20
2022-09-09T03:30:04.372Z,14.10
2022-09-09T03:32:32.290Z,14.10
2022-09-09T03:34:58.940Z,14.10
2022-09-09T03:37:25.548Z,14.00
2022-09-09T03:39:52.292Z,13.90
2022-09-09T03:42:21.838Z,13.90
2022-09-09T03:44:50.742Z,13.80
2022-09-09T03:47:19.095Z,13.80
2022-09-09T03:49:46.187Z,13.70
2022-09-09T03:52:12.983Z,13.70
2022-09-09T03:54:40.199Z,13.60
2022-09-09T03:57:07.185Z,13.60
2022-09-09T03:59:33.832Z,13.60
2022-09-09T04:02:00.781Z,13.60
2022-09-09T04:04:27.947Z,13.60
2022-09-09T04:06:54.915Z,13.60
2022-09-09T04:09:21.668Z,13.60
2022-09-09T04:11:48.283Z,13.60
2022-09-09T04:14:14.877Z,13.70
2022-09-09T04:16:44.103Z,13.60
2022-09-09T04:19:13.356Z,13.70
2022-09-09T04:21:43.155Z,13.70
2022-09-09T04:24:09.875Z,13.70
2022-09-09T04:26:37.542Z,13.70
2022-09-09T04:29:05.064Z,13.70
2022-09-09T04:31:31.908Z,13.70
2022-09-09T04:33:58.540Z,13.70
2022-09-09T04:36:25.168Z,13.70
2022-09-09T04:38:51.758Z,13.70
2022-09-09T04:41:18.449Z,13.70
2022-09-09T04:43:45.403Z,13.60
2022-09-09T04:46:12.083Z,13.60
2022-09-09T04:48:38.749Z,13.60
2022-09-09T04:51:06.704Z,13.60
2022-09-09T04:53:35.096Z,13.60
2022-09-09T04:56:02.993Z,13.60
2022-09-09T04:58:29.753Z,13.50
2022-09-09T05:00:56.961Z,13.50
2022-09-09T05:03:23.570Z,13.50
2022-09-09T05:05:50.151Z,13.50
2022-09-09T05:08:16.802Z,13.50
2022-09-09T05:10:43.434Z,13.50
2022-09-09T05:13:10.078Z,13.50
2022-09-09T05:15:37.161Z,13.60
2022-09-09T05:18:03.895Z,13.50
2022-09-09T05:20:30.835Z,13.60
2022-09-09T05:22:57.542Z,13.60
2022-09-09T05:25:26.911Z,13.60
2022-09-09T05:27:54.706Z,13.70
2022-09-09T05:30:23.129Z,13.70
2022-09-09T05:32:49.995Z,13.70
2022-09-09T05:35:17.265Z,13.70
2022-09-09T05:37:43.931Z,13.70
2022-09-09T05:40:11.865Z,13.80
2022-09-09T05:42:40.878Z,13.80
2022-09-09T05:45:08.812Z,13.90
2022-09-09T05:47:36.497Z,13.90
2022-09-09T05:50:03.415Z,13.90
2022-09-09T05:52:30.200Z,13.90
2022-09-09T05:54:57.979Z,13.90
2022-09-09T05:57:24.588Z,14.00
2022-09-09T05:59:51.415Z,14.00
2022-09-09T06:02:18.171Z,14.10
2022-09-09T06:04:44.943Z,14.10
2022-09-09T06:07:11.540Z,14.20
2022-09-09T06:09:38.200Z,14.30
2022-09-09T06:12:05.103Z,14.30
2022-09-09T06:14:31.934Z,14.40
2022-09-09T06:16:58.580Z,14.50
2022-09-09T06:19:27.381Z,14.60
2022-09-09T06:21:53.963Z,14.70
2022-09-09T06:24:21.041Z,14.70
2022-09-09T06:26:47.682Z,14.80
2022-09-09T06:29:14.347Z,14.80
2022-09-09T06:31:42.357Z,14.90
2022-09-09T06:34:09.431Z,14.90
2022-09-09T06:36:37.856Z,15.00
2022-09-09T06:39:04.636Z,15.00
2022-09-09T06:41:32.301Z,15.00
2022-09-09T06:43:58.894Z,15.10
2022-09-09T06:46:29.579Z,15.10
2022-09-09T06:48:57.099Z,15.20
2022-09-09T06:51:24.607Z,15.30
2022-09-09T06:53:52.076Z,15.40
2022-09-09T06:56:20.831Z,15.50
2022-09-09T06:58:47.655Z,15.70
2022-09-09T07:01:15.471Z,15.80
2022-09-09T07:03:43.276Z,15.90
2022-09-09T07:06:15.439Z,16.00
2022-09-09T07:08:42.191Z,16.20
2022-09-09T07:11:12.376Z,16.20
2022-09-09T07:13:39.307Z,16.30
2022-09-09T07:16:06.985Z,16.40
2022-09-09T07:18:34.385Z,16.40
2022-09-09T07:21:01.512Z,16.40
2022-09-09T07:23:28.111Z,16.50
2022-09-09T07:25:54.951Z,16.50
2022-09-09T07:28:21.939Z,16.40
2022-09-09T07:31:06.861Z,16.40
2022-09-09T07:33:35.180Z,16.40
2022-09-09T07:36:06.915Z,16.40
2022-09-09T07:38:34.481Z,16.50
2022-09-09T07:41:06.499Z,16.60
2022-09-09T07:43:34.242Z,16.70
2022-09-09T07:46:02.492Z,16.90
2022-09-09T07:48:29.681Z,17.00
2022-09-09T07:51:13.144Z,17.30
2022-09-09T07:53:39.904Z,17.50
2022-09-09T07:56:08.387Z,17.60
2022-09-09T07:58:38.297Z,17.80
2022-09-09T08:01:13.356Z,17.90
2022-09-09T08:03:40.009Z,17.90
2022-09-09T08:06:08.208Z,18.00
2022-09-09T08:08:35.662Z,18.10
2022-09-09T08:11:15.588Z,18.20
2022-09-09T08:13:43.037Z,18.20
2022-09-09T08:16:39.311Z,18.40
2022-09-09T08:19:08.198Z,18.40
2022-09-09T08:21:37.610Z,18.50
2022-09-09T08:24:05.917Z,18.60
2022-09-09T08:26:36.848Z,18.70
2022-09-09T08:29:04.502Z,18.70
2022-09-09T08:31:32.353Z,18.80
2022-09-09T08:34:04.306Z,18.90
2022-09-09T08:36:34.331Z,19.10
2022-09-09T08:39:01.653Z,19.20
2022-09-09T08:41:46.781Z,19.20
2022-09-09T08:44:22.679Z,19.20
2022-09-09T08:47:01.867Z,19.20
2022-09-09T08:49:28.851Z,19.10
2022-09-09T08:51:56.262Z,19.00
2022-09-09T08:54:41.764Z,18.80
2022-09-09T08:57:15.640Z,18.70
2022-09-09T08:59:42.244Z,18.60
2022-09-09T09:02:27.843Z,18.50
2022-09-09T09:05:00.140Z,18.50
2022-09-09T09:07:41.411Z,18.40
2022-09-09T09:10:40.135Z,18.40
2022-09-09T09:13:03.417Z,18.50
2022-09-09T09:15:32.744Z,18.50
2022-09-09T09:17:59.560Z,18.60
2022-09-09T09:20:42.625Z,18.80
2022-09-09T09:23:13.718Z,18.90
2022-09-09T09:25:43.699Z,19.10
2022-09-09T09:28:18.464Z,19.30
2022-09-09T09:30:53.557Z,19.50
2022-09-09T09:33:20.268Z,19.80
2022-09-09T09:35:46.960Z,20.10
2022-09-09T09:41:09.865Z,20.40
2022-09-09T09:43:37.930Z,20.40
2022-09-09T09:46:17.642Z,20.30
2022-09-09T09:48:46.222Z,20.30
2022-09-09T09:51:16.928Z,20.20
2022-09-09T09:53:43.814Z,20.10
2022-09-09T09:56:12.367Z,20.00
2022-09-09T09:58:51.225Z,19.90
2022-09-09T10:01:25.568Z,19.80
2022-09-09T10:03:53.218Z,19.80
2022-09-09T10:06:30.738Z,19.70
2022-09-09T10:08:57.419Z,19.70
2022-09-09T10:11:43.607Z,19.60
2022-09-09T10:14:18.437Z,19.60
2022-09-09T10:16:49.443Z,19.60
2022-09-09T10:19:30.211Z,19.60
2022-09-09T10:22:09.071Z,19.60
2022-09-09T10:25:02.440Z,19.50
2022-09-09T10:27:35.090Z,19.40
2022-09-09T10:30:20.600Z,19.20
2022-09-09T10:32:53.462Z,19.10
2022-09-09T10:35:20.133Z,19.00
2022-09-09T10:37:49.817Z,19.10
2022-09-09T10:40:22.522Z,19.10
2022-09-09T10:42:49.270Z,19.20
2022-09-09T10:45:19.135Z,19.30
2022-09-09T10:47:45.799Z,19.30
2022-09-09T10:50:50.375Z,19.40
2022-09-09T10:53:17.647Z,19.40
2022-09-09T10:55:46.125Z,19.50
2022-09-09T10:58:19.301Z,19.60
2022-09-09T11:00:56.093Z,19.80
2022-09-09T11:03:30.325Z,19.90
2022-09-09T11:06:01.039Z,20.10
2022-09-09T11:08:29.800Z,20.30
2022-09-09T11:11:00.628Z,20.50
2022-09-09T11:13:27.246Z,20.70
2022-09-09T11:15:59.191Z,20.90
2022-09-09T11:18:25.880Z,21.10
2022-09-09T11:20:56.807Z,21.30
2022-09-09T11:23:26.920Z,21.40
2022-09-09T11:25:56.869Z,21.60
2022-09-09T11:28:52.874Z,21.70
2022-09-09T11:31:32.125Z,21.80
2022-09-09T11:34:17.249Z,22.00
2022-09-09T11:36:54.031Z,22.00
2022-09-09T11:39:47.545Z,22.30
2022-09-09T11:42:14.178Z,22.40
2022-09-09T11:44:41.946Z,22.50
2022-09-09T11:47:21.330Z,22.60
2022-09-09T11:49:48.510Z,22.60
2022-09-09T11:52:27.656Z,22.60
2022-09-09T11:54:56.179Z,22.60
2022-09-09T11:57:30.725Z,22.70
2022-09-09T11:59:57.583Z,22.70
2022-09-09T12:02:28.695Z,22.80
2022-09-09T12:04:59.043Z,22.70
2022-09-09T12:07:40.107Z,22.70
2022-09-09T12:10:25.679Z,22.70
2022-09-09T12:12:52.322Z,22.70
2022-09-09T12:15:21.807Z,22.70
2022-09-09T12:17:51.479Z,22.70
2022-09-09T12:20:27.960Z,22.70
2022-09-09T12:23:14.267Z,22.70
2022-09-09T12:25:56.216Z,22.70
2022-09-09T12:28:38.335Z,22.70
2022-09-09T12:31:24.383Z,22.70
2022-09-09T12:33:51.104Z,22.70
2022-09-09T12:36:20.375Z,22.70
2022-09-09T12:38:47.567Z,22.80
2022-09-09T12:41:27.788Z,22.80
2022-09-09T12:44:07.485Z,22.80
2022-09-09T12:46:37.584Z,22.90
2022-09-09T12:49:05.448Z,23.00
2022-09-09T12:51:33.217Z,23.00
2022-09-09T12:54:00.625Z,23.10
2022-09-09T12:56:29.858Z,23.20
2022-09-09T12:58:57.870Z,23.10
2022-09-09T13:01:29.526Z,23.10
2022-09-09T13:03:56.346Z,22.90
2022-09-09T13:06:29.272Z,22.90
2022-09-09T13:09:00.495Z,22.80
2022-09-09T13:11:29.523Z,22.60
2022-09-09T13:13:57.309Z,22.60
2022-09-09T13:16:26.785Z,22.50
2022-09-09T13:18:53.876Z,22.40
2022-09-09T13:21:20.618Z,22.40
2022-09-09T13:23:51.564Z,22.30
2022-09-09T13:26:22.511Z,22.40
2022-09-09T13:28:49.665Z,22.30
2022-09-09T13:31:24.194Z,22.30
2022-09-09T13:33:50.877Z,22.20
2022-09-09T13:36:28.174Z,22.10
2022-09-09T13:38:56.968Z,22.00
2022-09-09T13:41:37.253Z,22.00
2022-09-09T13:44:04.494Z,21.90
2022-09-09T13:46:37.392Z,21.90
2022-09-09T13:49:10.074Z,21.80
2022-09-09T13:51:38.528Z,21.70
2022-09-09T13:54:10.524Z,21.60
2022-09-09T13:56:38.172Z,21.50
2022-09-09T13:59:05.639Z,21.50
2022-09-09T14:01:35.842Z,21.40
2022-09-09T14:04:02.602Z,21.30
2022-09-09T14:06:30.176Z,21.20
2022-09-09T14:08:56.792Z,21.10
2022-09-09T14:11:23.458Z,21.10
2022-09-09T14:13:52.969Z,21.10
2022-09-09T14:16:19.928Z,21.10
2022-09-09T14:18:46.857Z,21.10
2022-09-09T14:21:13.769Z,21.00
2022-09-09T14:23:40.640Z,21.00
2022-09-09T14:26:07.386Z,21.00
2022-09-09T14:31:21.984Z,21.00
2022-09-09T14:33:48.632Z,20.90
2022-09-09T14:36:16.077Z,20.80
2022-09-09T14:38:43.682Z,20.80
2022-09-09T14:41:11.251Z,20.70
2022-09-09T14:43:41.154Z,20.70
2022-09-09T14:46:08.961Z,20.50
2022-09-09T14:48:36.076Z,20.40
2022-09-09T14:51:09.554Z,20.40
2022-09-09T14:53:36.119Z,20.30
2022-09-09T14:56:07.057Z,20.30
2022-09-09T14:58:33.962Z,20.20
2022-09-09T15:01:05.298Z,20.20
2022-09-09T15:03:31.935Z,20.10
2022-09-09T15:05:59.318Z,20.10
2022-09-09T15:08:27.028Z,20.10
2022-09-09T15:10:59.991Z,20.10
2022-09-09T15:13:26.659Z,20.00
2022-09-09T15:15:55.178Z,20.00
2022-09-09T15:18:22.148Z,20.00
2022-09-09T15:20:48.776Z,20.00
2022-09-09T15:23:15.826Z,20.00
2022-09-09T15:25:55.495Z,19.90
2022-09-09T15:28:22.543Z,19.80
2022-09-09T15:30:49.915Z,19.70
2022-09-09T15:33:16.832Z,19.70
2022-09-09T15:35:43.484Z,19.60
2022-09-09T15:38:10.264Z,19.50
2022-09-09T15:40:36.923Z,19.40
2022-09-09T15:43:05.275Z,19.30
2022-09-09T15:45:33.389Z,19.20
2022-09-09T15:48:04.344Z,19.20
2022-09-09T15:50:34.246Z,19.10
2022-09-09T15:53:01.064Z,19.20
2022-09-09T15:55:27.702Z,19.20
2022-09-09T15:57:54.417Z,19.30
2022-09-09T16:00:21.030Z,19.40
2022-09-09T16:02:48.367Z,19.50
2022-09-09T16:05:15.064Z,19.50
2022-09-09T16:07:43.299Z,19.50
2022-09-09T16:10:10.494Z,19.50
2022-09-09T16:12:37.616Z,19.40
2022-09-09T16:15:04.645Z,19.30
2022-09-09T16:17:31.390Z,19.20
2022-09-09T16:19:58.615Z,19.10
2022-09-09T16:22:25.537Z,19.10
2022-09-09T16:24:52.199Z,19.10
2022-09-09T16:27:19.104Z,19.10
2022-09-09T16:29:46.319Z,19.10
2022-09-09T16:32:13.156Z,19.10
2022-09-09T16:34:39.764Z,19.10
2022-09-09T16:37:06.396Z,19.20
2022-09-09T16:39:33.124Z,19.20
2022-09-09T16:42:00.773Z,19.20
2022-09-09T16:44:27.361Z,19.20
2022-09-09T16:46:59.613Z,19.10
2022-09-09T16:49:28.533Z,19.00
2022-09-09T16:51:58.016Z,19.00
2022-09-09T16:54:27.950Z,18.80
2022-09-09T16:56:54.639Z,18.70
2022-09-09T16:59:22.240Z,18.50
2022-09-09T17:01:50.064Z,18.40
2022-09-09T17:04:21.269Z,18.30
2022-09-09T17:06:50.211Z,18.10
2022-09-09T17:09:17.255Z,18.00
2022-09-09T17:11:43.921Z,17.90
2022-09-09T17:14:12.446Z,17.70
2022-09-09T17:16:40.511Z,17.60
2022-09-09T17:19:09.232Z,17.50
2022-09-09T17:21:42.704Z,17.30
2022-09-09T17:24:22.715Z,17.20
2022-09-09T17:26:49.586Z,17.00
2022-09-09T17:29:17.814Z,17.00
2022-09-09T17:31:44.419Z,16.80
2022-09-09T17:34:11.051Z,16.70
2022-09-09T17:36:37.979Z,16.60
2022-09-09T17:39:04.956Z,16.50
2022-09-09T17:41:36.392Z,16.40
2022-09-09T17:44:04.469Z,16.30
2022-09-09T17:46:33.508Z,16.20
2022-09-09T17:49:01.208Z,16.10
2022-09-09T17:51:30.435Z,16.00
2022-09-09T17:53:59.899Z,15.90
2022-09-09T17:56:27.244Z,15.80
2022-09-09T17:58:53.868Z,15.70
2022-09-09T18:01:25.345Z,15.70
2022-09-09T18:03:52.271Z,15.60
2022-09-09T18:06:20.736Z,15.50
2022-09-09T18:08:51.505Z,15.40
2022-09-09T18:11:19.003Z,15.40
2022-09-09T18:13:49.298Z,15.30
2022-09-09T18:16:15.938Z,15.20
2022-09-09T18:18:42.591Z,15.10
2022-09-09T18:21:09.231Z,15.00
2022-09-09T18:23:52.750Z,14.90
2022-09-09T18:26:20.745Z,14.80
2022-09-09T18:28:48.883Z,14.80
2022-09-09T18:31:16.817Z,14.70
2022-09-09T18:33:44.643Z,14.60
2022-09-09T18:36:12.935Z,14.50
2022-09-09T18:38:39.572Z,14.40
2022-09-09T18:41:13.292Z,14.40
2022-09-09T18:43:40.028Z,14.30
2022-09-09T18:46:06.893Z,14.30
2022-09-09T18:48:33.946Z,14.20
2022-09-09T18:51:08.033Z,14.20
2022-09-09T18:53:35.612Z,14.10
2022-09-09T18:56:03.724Z,14.10
2022-09-09T18:58:30.798Z,14.00
2022-09-09T19:00:57.495Z,14.00
2022-09-09T19:03:25.586Z,14.00
2022-09-09T19:05:52.576Z,13.90
2022-09-09T19:08:20.421Z,13.90
2022-09-09T19:10:47.639Z,13.90
2022-09-09T19:13:14.872Z,13.80
2022-09-09T19:15:41.801Z,13.80
2022-09-09T19:18:08.612Z,13.80
2022-09-09T19:20:35.179Z,13.80
2022-09-09T19:23:02.153Z,13.70
2022-09-09T19:25:28.903Z,13.80
2022-09-09T19:27:55.507Z,13.80
2022-09-09T19:30:22.252Z,13.90
2022-09-09T19:32:53.719Z,14.00
2022-09-09T19:35:20.582Z,14.00
2022-09-09T19:37:47.544Z,14.10
2022-09-09T19:40:14.385Z,14.20
2022-09-09T19:42:41.057Z,14.30
2022-09-09T19:45:09.416Z,14.30
2022-09-09T19:47:36.375Z,14.40
2022-09-09T19:50:05.691Z,14.50
2022-09-09T19:52:32.304Z,14.40
2022-09-09T19:54:59.376Z,14.40
2022-09-09T19:57:30.230Z,14.40
2022-09-09T19:59:57.459Z,14.40
2022-09-09T20:02:24.942Z,14.40
2022-09-09T20:04:51.901Z,14.50
2022-09-09T20:07:19.153Z,14.40
2022-09-09T20:09:45.805Z,14.40
2022-09-09T20:12:12.408Z,14.50
2022-09-09T20:14:39.965Z,14.50
2022-09-09T20:17:07.123Z,14.50
2022-09-09T20:19:34.696Z,14.40
2022-09-09T20:22:01.361Z,14.40
2022-09-09T20:24:28.534Z,14.30
2022-09-09T20:26:56.364Z,14.30
2022-09-09T20:29:22.987Z,14.20
2022-09-09T20:31:49.630Z,14.10
2022-09-09T20:34:18.704Z,14.00
2022-09-09T20:36:46.101Z,14.00
2022-09-09T20:39:17.273Z,13.90
2022-09-09T20:41:45.348Z,13.80
2022-09-09T20:44:14.503Z,13.80
2022-09-09T20:46:42.983Z,13.70
2022-09-09T20:49:10.730Z,13.60
2022-09-09T20:51:37.416Z,13.60
2022-09-09T20:54:05.478Z,13.60
2022-09-09T20:56:33.421Z,13.50
2022-09-09T20:59:00.639Z,13.50
2022-09-09T21:01:27.476Z,13.50
2022-09-09T21:03:54.318Z,13.50
2022-09-09T21:06:20.917Z,13.50
2022-09-09T21:08:47.543Z,13.50
2022-09-09T21:11:14.716Z,13.40
2022-09-09T21:13:41.705Z,13.50
2022-09-09T21:16:09.688Z,13.50
2022-09-09T21:18:37.572Z,13.50
2022-09-09T21:21:04.334Z,13.50
2022-09-09T21:23:31.326Z,13.50
2022-09-09T21:25:57.979Z,13.60
2022-09-09T21:28:25.757Z,13.60
2022-09-09T21:30:53.353Z,13.70
2022-09-09T21:33:20.792Z,13.70
2022-09-09T21:35:47.398Z,13.80
2022-09-09T21:38:18.759Z,13.90
2022-09-09T21:40:45.743Z,14.00
2022-09-09T21:43:13.638Z,14.10
2022-09-09T21:45:40.991Z,14.30
2022-09-09T21:48:08.567Z,14.40
2022-09-09T21:50:39.076Z,14.40
2022-09-09T21:53:06.232Z,14.50
2022-09-09T21:55:34.359Z,14.50
2022-09-09T21:58:00.952Z,14.50
2022-09-09T22:00:27.588Z,14.50
2022-09-09T22:02:54.181Z,14.40
2022-09-09T22:05:20.768Z,14.40
2022-09-09T22:07:47.415Z,14.40
2022-09-09T22:10:14.007Z,14.40
2022-09-09T22:12:40.639Z,14.30
2022-09-09T22:15:07.819Z,14.30
2022-09-09T22:17:34.644Z,14.30
2022-09-09T22:20:01.285Z,14.30
2022-09-09T22:22:27.883Z,14.20
2022-09-09T22:24:54.570Z,14.20
2022-09-09T22:27:21.195Z,14.10
2022-09-09T22:29:47.768Z,14.10
2022-09-09T22:32:14.371Z,14.00
2022-09-09T22:34:41.147Z,14.00
2022-09-09T22:37:08.154Z,13.90
2022-09-09T22:39:34.930Z,13.90
2022-09-09T22:42:01.631Z,13.80
2022-09-09T22:44:28.524Z,13.80
2022-09-09T22:46:55.767Z,13.80
2022-09-09T22:49:23.114Z,13.70
2022-09-09T22:51:50.135Z,13.70
2022-09-09T22:54:21.648Z,13.70
2022-09-09T22:56:48.896Z,13.60
2022-09-09T22:59:15.960Z,13.50
2022-09-09T23:01:42.948Z,13.50
2022-09-09T23:04:09.964Z,13.40
2022-09-09T23:06:39.891Z,13.30
2022-09-09T23:09:07.072Z,13.20
2022-09-09T23:11:35.021Z,13.10
2022-09-09T23:14:02.375Z,13.10
2022-09-09T23:16:31.153Z,13.00
2022-09-09T23:18:57.787Z,12.90
2022-09-09T23:21:26.223Z,12.80
2022-09-09T23:23:53.930Z,12.80
2022-09-09T23:26:20.902Z,12.70
2022-09-09T23:28:48.924Z,12.60
2022-09-09T23:31:16.908Z,12.60
2022-09-09T23:33:43.546Z,12.50
2022-09-09T23:36:15.488Z,12.50
2022-09-09T23:38:43.545Z,12.40
2022-09-09T23:41:11.276Z,12.40
2022-09-09T23:43:39.607Z,12.30
2022-09-09T23:46:10.606Z,12.30
2022-09-09T23:48:38.643Z,12.20
2022-09-09T23:51:06.114Z,12.20
2022-09-09T23:53:32.843Z,12.10
2022-09-09T23:55:59.582Z,12.10
2022-09-09T23:58:26.203Z,12.10
